Latest Coastal Weather Observations for Moorabbin Airport

IDV60701

Issued at 5:41 am EST Saturday 30 July 2016 (issued every 10 minutes, with the page automatically refreshed every 10 minutes)

About coastal observations | Map of coastal stations | Coastal observations for VIC | Marine services | Other Formats
Station Details ID: 086077 Name: MOORABBIN AIRPORT Lat: -37.98 Lon: 145.10 Height: 12.1 m
Data from the previous 72 hours. | See also: Recent months at Moorabbin Airport
Date/Time
EST
Temp
°C
Wind Pressure Rain since
9am
mm
Weather Cloud Vis
km
Sea
Height
m
Swell
Dir  Spd
kts
Gust
kts
hPa Trend Height
m
Period
s
Dir
30/05:30am 9.9 N 5 6 1021.3 - 2.2 - Cloudy 10 - - - -
30/05:00am 9.7 N 4 6 1021.3 - 2.2 - Cloudy 10 - - - -
30/04:30am 9.1 NNW 3 4 1021.4 - 2.2 - Partly cloudy 10 - - - -
30/04:00am 8.8 N 4 4 1021.2 - 2.2 - Cloudy 10 - - - -
30/03:30am 8.7 N 4 5 1021.3 - 2.2 - Partly cloudy 10 - - - -
30/03:00am 8.5 N 4 5 1021.5 - 2.2 - Mostly clear 10 - - - -
30/02:30am 9.1 NNW 5 6 1021.7 - 2.2 - Partly cloudy 10 - - - -
30/02:00am 9.3 N 4 5 1021.9 - 2.2 - - 10 - - - -
30/01:30am 10.2 NNW 4 6 1021.7 - 2.2 - Partly cloudy 10 - - - -
30/01:00am 10.8 NNW 5 7 1021.7 - 2.2 - Partly cloudy 10 - - - -
30/12:30am 11.3 NW 5 7 1021.8 - 2.2 - Partly cloudy 10 - - - -
30/12:00am 11.1 N 6 7 1021.9 - 2.2 - Cloudy 10 - - - -
 
Date/Time
EST
Temp
°C
Wind Pressure Rain since
9am
mm
Weather Cloud Vis
km
Sea
Height
m
Swell
Dir  Spd
kts
Gust
kts
hPa Trend Height
m
Period
s
Dir
29/11:30pm 11.3 NNW 5 6 1021.9 - 2.2 - Partly cloudy 10 - - - -
29/11:00pm 11.0 N 5 7 1021.9 - 2.2 - Partly cloudy 10 - - - -
29/10:30pm 11.2 NNW 6 7 1021.8 - 2.2 - Partly cloudy 10 - - - -
29/10:00pm 10.8 NNW 5 7 1021.9 - 2.2 - Partly cloudy 10 - - - -
29/09:30pm 10.7 NW 5 6 1021.8 - 2.2 - Partly cloudy 10 - - - -
29/09:00pm 11.6 NNW 7 8 1021.7 - 2.2 - Cloudy 10 - - - -
29/08:30pm 11.7 NW 6 8 1021.6 - 2.2 - Cloudy 10 - - - -
29/08:00pm 11.3 NNW 6 8 1021.6 - 2.2 - Partly cloudy 10 - - - -
29/07:30pm 11.3 NW 6 8 1021.3 - 2.2 - Partly cloudy 10 - - - -
29/07:00pm 11.7 NW 6 8 1020.9 - 2.2 - Partly cloudy 10 - - - -
29/06:30pm 11.9 NNW 6 8 1020.6 - 2.2 - Partly cloudy 10 - - - -
29/06:01pm 12.1 NW 9 13 1020.4 - 2.2 - Partly cloudy 10 - - - -
29/06:00pm 12.1 NW 9 13 1020.4 - 2.2 Recent precip. Cloudy 10 - - - -
29/05:50pm 12.1 NW 9 13 1020.2 - 2.2 - Partly cloudy 5 - - - -
29/05:30pm 12.4 NW 9 12 1020.0 - 1.8 - Partly cloudy 10 - - - -
29/05:00pm 12.2 NW 8 11 1019.9 - 1.8 - Partly cloudy 10 - - - -
29/04:30pm 12.2 NW 9 13 1019.7 - 1.8 - Partly cloudy 10 - - - -
29/04:06pm 12.2 WNW 6 7 1019.6 - 1.8 - Partly cloudy 10 - - - -
29/04:00pm 12.2 WNW 6 11 1019.5 - 1.8 - Partly cloudy 9 - - - -
29/03:37pm 13.4 WNW 8 15 1019.6 - 0.2 - Partly cloudy 5 - - - -
29/03:30pm 14.2 NW 9 16 1019.2 - 0.0 - Partly cloudy 10 - - - -
29/03:00pm 14.6 NW 13 21 1019.1 - 0.0 - Cloudy 10 - - - -
29/02:30pm 14.9 NW 13 19 1019.1 - 0.0 - Partly cloudy 10 - - - -
29/02:00pm 14.6 NW 14 20 1019.2 - 0.0 - Partly cloudy 10 - - - -
29/01:30pm 14.6 NW 10 15 1019.4 - 0.0 - Partly cloudy 10 - - - -
29/01:00pm 14.3 NW 12 21 1019.9 - 0.0 - Partly cloudy 10 - - - -
29/12:31pm 13.4 NW 10 15 1020.1 - 0.0 - Partly cloudy 10 - - - -
29/12:30pm 13.3 NW 10 15 1020.1 - 0.0 - Partly cloudy 10 - - - -
29/12:16pm 12.5 NW 8 12 1020.5 - 0.0 - Partly cloudy 5 - - - -
29/12:00pm 12.8 WNW 13 18 1020.7 - 0.0 - Cloudy 10 - - - -
29/11:30am 12.7 NNW 12 17 1020.6 - 0.0 - Cloudy 10 - - - -
29/11:00am 12.2 N 14 20 1020.5 - 0.0 - Cloudy 10 - - - -
29/10:30am 12.8 NNW 13 19 1020.8 - 0.0 - Cloudy 10 - - - -
29/10:00am 12.2 NNW 13 19 1020.7 - 0.0 - Cloudy 10 - - - -
29/09:30am 12.0 NNW 15 19 1020.9 - 0.0 - Partly cloudy 10 - - - -
29/09:00am 11.6 NNW 14 19 1020.9 - 0.0 - Cloudy 10 - - - -
29/08:30am 11.2 N 15 21 1020.8 - 0.0 - Partly cloudy 10 - - - -
29/08:00am 11.1 NNW 13 18 1020.7 - 0.0 - Cloudy 10 - - - -
29/07:30am 11.0 N 16 22 1020.4 - 0.0 - Partly cloudy 10 - - - -
29/07:00am 11.1 NNW 16 21 1020.2 - 0.0 - Partly cloudy 10 - - - -
29/06:30am 11.0 NNW 12 17 1020.3 - 0.0 - Partly cloudy 10 - - - -
29/06:00am 11.2 NNW 15 21 1019.9 - 0.0 - Cloudy 10 - - - -
29/05:30am 11.1 NNW 16 23 1020.1 - 0.0 - Partly cloudy 10 - - - -
29/05:00am 11.4 NNW 13 18 1020.3 - 0.0 - Cloudy 10 - - - -
29/04:30am 10.9 NNW 13 19 1020.2 - 0.0 - Partly cloudy 10 - - - -
29/04:00am 11.2 N 14 18 1020.2 - 0.0 - Cloudy 10 - - - -
29/03:30am 11.4 NNW 12 18 1020.3 - 0.0 - Cloudy 10 - - - -
29/03:00am 11.7 NNW 14 21 1020.5 - 0.0 - Cloudy 10 - - - -
29/02:30am 11.5 NNW 14 20 1020.7 - 0.0 - Partly cloudy 10 - - - -
29/02:00am 11.3 NNW 13 18 1020.9 - 0.0 - Partly cloudy 10 - - - -
29/01:30am 11.2 N 14 19 1021.1 - 0.0 - Partly cloudy 10 - - - -
29/01:00am 11.7 N 12 17 1021.5 - 0.0 - Cloudy 10 - - - -
29/12:30am 11.7 N 12 17 1021.7 - 0.0 - Cloudy 10 - - - -
29/12:00am 11.8 N 13 16 1021.9 - 0.0 - Mostly cloudy 10 - - - -
 
Date/Time
EST
Temp
°C
Wind Pressure Rain since
9am
mm
Weather Cloud Vis
km
Sea
Height
m
Swell
Dir  Spd
kts
Gust
kts
hPa Trend Height
m
Period
s
Dir
28/11:30pm 11.9 N 15 20 1022.0 - 0.0 - Cloudy 10 - - - -
28/11:00pm 12.1 NNW 13 18 1022.2 - 0.0 - Cloudy 10 - - - -
28/10:30pm 12.3 NNW 12 17 1022.6 - 0.0 - Cloudy 10 - - - -
28/10:00pm 12.5 NNW 15 21 1022.5 - 0.0 - Cloudy 10 - - - -
28/09:30pm 12.3 NNW 11 15 1022.7 - 0.0 - Cloudy 10 - - - -
28/09:00pm 12.4 NNW 12 16 1022.8 - 0.0 - Cloudy 10 - - - -
28/08:30pm 12.5 NNW 12 17 1022.7 - 0.0 - Cloudy 10 - - - -
28/08:00pm 12.4 NNW 12 16 1022.8 - 0.0 - Cloudy 10 - - - -
28/07:30pm 12.6 NNW 13 19 1022.8 - 0.0 - Cloudy 10 - - - -
28/07:00pm 12.6 N 13 17 1022.7 - 0.0 - Cloudy 10 - - - -
28/06:30pm 12.7 NNW 11 18 1022.7 - 0.0 - Cloudy 10 - - - -
28/06:00pm 12.9 N 8 12 1022.6 - 0.0 - Cloudy 10 - - - -
28/05:30pm 14.0 NW 8 11 1022.3 - 0.0 - Cloudy 10 - - - -
28/05:00pm 14.2 NW 10 14 1022.2 - 0.0 - Cloudy 10 - - - -
28/04:30pm 14.3 NW 9 14 1022.1 - 0.0 - Partly cloudy 10 - - - -
28/04:00pm 14.3 WNW 11 16 1022.1 - 0.0 - Partly cloudy 10 - - - -
28/03:30pm 14.2 WNW 10 14 1022.1 - 0.0 - Partly cloudy 10 - - - -
28/03:00pm 14.2 WNW 8 13 1022.1 - 0.0 - Cloudy 10 - - - -
28/02:30pm 13.7 W 9 13 1022.2 - 0.0 - Partly cloudy 10 - - - -
28/02:00pm 14.0 NW 11 17 1022.1 - 0.0 - Cloudy 10 - - - -
28/01:30pm 13.9 NW 10 16 1022.4 - 0.0 - Cloudy 10 - - - -
28/01:00pm 13.9 NW 14 19 1022.7 - 0.0 - Cloudy 10 - - - -
28/12:30pm 14.3 WNW 10 15 1022.8 - 0.0 - Cloudy 10 - - - -
28/12:00pm 14.1 NW 12 22 1023.0 - 0.0 - Cloudy 10 - - - -
28/11:30am 13.8 NW 13 21 1023.2 - 0.0 - Partly cloudy 10 - - - -
28/11:00am 13.1 NNW 11 15 1023.5 - 0.0 - Cloudy 10 - - - -
28/10:30am 12.5 NNW 13 18 1023.6 - 0.0 - Cloudy 10 - - - -
28/10:00am 12.0 NW 14 21 1023.7 - 0.0 - Cloudy 10 - - - -
28/09:30am 11.5 NNW 11 17 1023.7 - 0.0 - Partly cloudy 10 - - - -
28/09:00am 10.3 NNW 10 13 1023.4 - 1.0 - - 10 - - - -
28/08:30am 9.4 NNW 13 17 1023.2 - 1.0 - Partly cloudy 10 - - - -
28/08:00am 8.3 N 11 13 1023.3 - 1.0 - Partly cloudy 10 - - - -
28/07:30am 9.1 NNW 9 11 1023.1 - 1.0 - Partly cloudy 10 - - - -
28/07:00am 8.7 NNW 9 13 1022.8 - 1.0 - Partly cloudy 10 - - - -
28/06:30am 9.0 NNW 8 10 1022.6 - 1.0 - Cloudy 10 - - - -
28/06:00am 9.0 NNW 8 10 1022.4 - 1.0 - Cloudy 10 - - - -
28/05:30am 8.9 N 6 8 1022.1 - 1.0 - Cloudy 10 - - - -
28/05:00am 9.7 NW 7 11 1022.2 - 1.0 - Cloudy 10 - - - -
28/04:30am 9.2 NNW 8 11 1022.0 - 1.0 - Cloudy 10 - - - -
28/04:00am 9.4 NNW 9 12 1021.9 - 1.0 - Cloudy 10 - - - -
28/03:30am 8.9 NNW 7 10 1021.8 - 1.0 - Partly cloudy 10 - - - -
28/03:00am 8.8 NNW 9 11 1021.9 - 1.0 - Partly cloudy 10 - - - -
28/02:30am 8.9 NNW 9 13 1022.0 - 1.0 - Partly cloudy 10 - - - -
28/02:00am 9.5 NNW 11 15 1021.9 - 1.0 - Partly cloudy 10 - - - -
28/01:30am 9.4 NNW 10 14 1022.0 - 1.0 - Partly cloudy 10 - - - -
28/01:00am 9.4 NNW 11 15 1021.7 - 1.0 - Partly cloudy 10 - - - -
28/12:30am 9.4 NNW 11 14 1021.6 - 1.0 - Partly cloudy 10 - - - -
28/12:00am 9.5 NW 9 13 1021.8 - 1.0 - Cloudy 10 - - - -
 
Date/Time
EST
Temp
°C
Wind Pressure Rain since
9am
mm
Weather Cloud Vis
km
Sea
Height
m
Swell
Dir  Spd
kts
Gust
kts
hPa Trend Height
m
Period
s
Dir
27/11:30pm 9.5 NW 9 13 1021.9 - 1.0 - Partly cloudy 10 - - - -
27/11:00pm 9.4 NW 8 11 1021.8 - 1.0 - Partly cloudy 10 - - - -
27/10:30pm 9.5 NW 9 14 1021.7 - 1.0 - Partly cloudy 10 - - - -
27/10:00pm 9.6 NW 9 14 1021.7 - 1.0 - Partly cloudy 10 - - - -
27/09:30pm 9.7 NW 9 12 1021.6 - 1.0 - Partly cloudy 10 - - - -
27/09:00pm 10.1 WNW 10 15 1022.0 - 1.0 - Cloudy 10 - - - -
27/08:30pm 10.0 WNW 10 15 1021.9 - 1.0 - Partly cloudy 10 - - - -
27/08:00pm 10.0 WNW 11 17 1021.6 - 1.0 - Partly cloudy 10 - - - -
27/07:30pm 10.2 WNW 8 12 1021.3 - 1.0 - Partly cloudy 10 - - - -
27/07:00pm 10.2 WNW 11 17 1021.0 - 1.0 - Partly cloudy 10 - - - -
27/06:30pm 10.1 WNW 9 14 1020.0 - 1.0 - Partly cloudy 10 - - - -
27/06:00pm 9.7 WNW 7 11 1019.5 - 1.0 - Mostly cloudy 10 - - - -
27/05:30pm 9.7 WNW 9 14 1019.3 - 1.0 - Partly cloudy 10 - - - -
27/05:00pm 9.8 WNW 13 22 1019.0 - 1.0 - Partly cloudy 10 - - - -
27/04:30pm 10.6 W 10 18 1018.7 - 1.0 - Partly cloudy 10 - - - -
27/04:00pm 11.0 W 12 17 1018.4 - 1.0 - Partly cloudy 10 - - - -
27/03:30pm 11.3 W 12 19 1018.0 - 1.0 - Partly cloudy 10 - - - -
27/03:00pm 11.0 W 9 13 1017.4 - 1.0 - Mostly cloudy 10 - - - -
27/02:30pm 11.1 WSW 8 14 1016.9 - 1.0 - Cloudy 10 - - - -
27/02:00pm 10.3 SW 15 21 1016.9 - 1.0 - Partly cloudy 10 - - - -
27/01:30pm 9.7 WSW 10 15 1016.5 - 1.0 - Partly cloudy 10 - - - -
27/01:00pm 9.5 W 9 14 1016.2 - 0.8 - Partly cloudy 10 - - - -
27/12:30pm 9.0 SW 10 15 1016.2 - 0.6 - Partly cloudy 7 - - - -
27/12:00pm 11.4 W 10 16 1015.7 - 0.0 - Cloudy 10 - - - -
27/11:30am 11.2 W 10 16 1015.3 - 0.0 - Cloudy 10 - - - -
27/11:00am 10.2 WSW 13 24 1015.3 - 0.0 - Partly cloudy 10 - - - -
27/10:30am 10.7 W 10 14 1014.6 - 0.0 - Partly cloudy 10 - - - -
27/10:00am 9.8 SW 11 21 1014.3 - 0.0 - Partly cloudy 8 - - - -
27/09:30am 9.4 SSW 13 20 1013.4 - 0.0 - Partly cloudy 10 - - - -
27/09:15am 9.9 WSW 9 13 1013.0 - 0.0 - Partly cloudy 10 - - - -
27/09:00am 9.6 WSW 9 14 1012.7 - 2.0 Rain Cloudy 5 - - - -
27/08:45am 9.5 WSW 10 15 1012.2 - 1.6 - Partly cloudy 6 - - - -
27/08:40am 9.5 WSW 10 15 1012.1 - 1.6 - Partly cloudy 9 - - - -
27/08:30am 9.4 WSW 9 13 1011.8 - 1.6 - Partly cloudy 5 - - - -
27/08:00am 9.4 W 12 18 1010.8 - 1.0 - Partly cloudy 2 - - - -
27/07:44am 9.6 W 10 16 1010.3 - 0.2 - Partly cloudy 5 - - - -
27/07:36am 10.0 WNW 9 14 1010.2 - 0.0 - Partly cloudy 10 - - - -
27/07:30am 10.1 WNW 11 17 1009.9 - 0.0 - Partly cloudy 10 - - - -
27/07:00am 9.9 NW 7 13 1009.1 - 0.0 - Partly cloudy 10 - - - -
27/06:30am 9.6 NW 9 13 1008.4 - 0.0 - Partly cloudy 10 - - - -
27/06:00am 9.7 NW 9 12 1007.9 - 0.0 - Cloudy 10 - - - -

Other Formats:

Comma delimited format used in spreadsheet applications
http://www.bom.gov.au/fwo/IDV60701/IDV60701.94870.axf

JavaScript Object Notation format (JSON) in row-major order
http://www.bom.gov.au/fwo/IDV60701/IDV60701.94870.json